sensor_id;sensor_type;location;lat;lon;timestamp;temperature;humidity
43151;DHT22;28755;51.478;5.702;2023-02-01T00:01:30;6.60;99.90
43151;DHT22;28755;51.478;5.702;2023-02-01T00:03:56;6.60;99.90
43151;DHT22;28755;51.478;5.702;2023-02-01T00:06:22;6.50;99.90
43151;DHT22;28755;51.478;5.702;2023-02-01T00:08:47;6.30;99.90
43151;DHT22;28755;51.478;5.702;2023-02-01T00:11:13;6.40;99.90
43151;DHT22;28755;51.478;5.702;2023-02-01T00:13:41;6.40;99.90
43151;DHT22;28755;51.478;5.702;2023-02-01T00:16:10;6.40;99.90
43151;DHT22;28755;51.478;5.702;2023-02-01T00:18:36;6.30;99.90
43151;DHT22;28755;51.478;5.702;2023-02-01T00:21:01;6.30;99.90
43151;DHT22;28755;51.478;5.702;2023-02-01T00:23:27;6.40;99.90
43151;DHT22;28755;51.478;5.702;2023-02-01T00:25:53;6.30;99.90
43151;DHT22;28755;51.478;5.702;2023-02-01T00:28:18;6.20;99.90
43151;DHT22;28755;51.478;5.702;2023-02-01T00:30:44;6.20;99.90
43151;DHT22;28755;51.478;5.702;2023-02-01T00:33:10;6.20;99.90
43151;DHT22;28755;51.478;5.702;2023-02-01T00:35:35;6.20;99.90
43151;DHT22;28755;51.478;5.702;2023-02-01T00:38:01;6.20;99.90
43151;DHT22;28755;51.478;5.702;2023-02-01T00:40:27;6.30;99.90
43151;DHT22;28755;51.478;5.702;2023-02-01T00:42:52;6.30;99.90
43151;DHT22;28755;51.478;5.702;2023-02-01T00:45:19;6.30;99.90
43151;DHT22;28755;51.478;5.702;2023-02-01T00:47:44;6.20;99.90
43151;DHT22;28755;51.478;5.702;2023-02-01T00:50:10;6.20;99.90
43151;DHT22;28755;51.478;5.702;2023-02-01T00:52:36;6.20;99.90
43151;DHT22;28755;51.478;5.702;2023-02-01T00:55:02;6.10;99.90
43151;DHT22;28755;51.478;5.702;2023-02-01T00:57:27;6.00;99.90
43151;DHT22;28755;51.478;5.702;2023-02-01T00:59:53;6.00;99.90
43151;DHT22;28755;51.478;5.702;2023-02-01T01:02:18;5.90;99.90
43151;DHT22;28755;51.478;5.702;2023-02-01T01:04:44;6.00;99.90
43151;DHT22;28755;51.478;5.702;2023-02-01T01:07:09;5.90;99.90
43151;DHT22;28755;51.478;5.702;2023-02-01T01:09:35;5.90;99.90
43151;DHT22;28755;51.478;5.702;2023-02-01T01:12:00;6.00;99.90
43151;DHT22;28755;51.478;5.702;2023-02-01T01:14:28;6.00;99.90
43151;DHT22;28755;51.478;5.702;2023-02-01T01:16:54;5.90;99.90
43151;DHT22;28755;51.478;5.702;2023-02-01T01:19:20;5.80;99.90
43151;DHT22;28755;51.478;5.702;2023-02-01T01:21:45;5.90;99.90
43151;DHT22;28755;51.478;5.702;2023-02-01T01:24:11;5.80;99.90
43151;DHT22;28755;51.478;5.702;2023-02-01T01:26:36;5.80;99.90
43151;DHT22;28755;51.478;5.702;2023-02-01T01:29:02;5.70;99.90
43151;DHT22;28755;51.478;5.702;2023-02-01T01:31:28;5.70;99.90
43151;DHT22;28755;51.478;5.702;2023-02-01T01:33:56;5.70;99.90
43151;DHT22;28755;51.478;5.702;2023-02-01T01:36:23;5.70;99.90
43151;DHT22;28755;51.478;5.702;2023-02-01T01:38:48;5.70;99.90
43151;DHT22;28755;51.478;5.702;2023-02-01T01:41:20;5.60;99.90
43151;DHT22;28755;51.478;5.702;2023-02-01T01:44:04;5.60;99.90
43151;DHT22;28755;51.478;5.702;2023-02-01T01:46:33;5.50;99.90
43151;DHT22;28755;51.478;5.702;2023-02-01T01:51:38;5.50;99.90
43151;DHT22;28755;51.478;5.702;2023-02-01T01:54:26;5.50;99.90
43151;DHT22;28755;51.478;5.702;2023-02-01T01:56:56;5.40;99.90
43151;DHT22;28755;51.478;5.702;2023-02-01T01:59:23;5.50;99.90
43151;DHT22;28755;51.478;5.702;2023-02-01T02:01:49;5.50;99.90
43151;DHT22;28755;51.478;5.702;2023-02-01T02:04:15;5.50;99.90
43151;DHT22;28755;51.478;5.702;2023-02-01T02:07:04;5.50;99.90
43151;DHT22;28755;51.478;5.702;2023-02-01T02:09:29;5.60;99.90
43151;DHT22;28755;51.478;5.702;2023-02-01T02:11:55;5.50;99.90
43151;DHT22;28755;51.478;5.702;2023-02-01T02:14:22;5.50;99.90
43151;DHT22;28755;51.478;5.702;2023-02-01T02:34:06;5.50;99.90
43151;DHT22;28755;51.478;5.702;2023-02-01T02:36:47;5.50;99.90
43151;DHT22;28755;51.478;5.702;2023-02-01T02:42:16;5.60;99.90
43151;DHT22;28755;51.478;5.702;2023-02-01T02:45:09;5.70;99.90
43151;DHT22;28755;51.478;5.702;2023-02-01T02:50:42;5.70;99.90
43151;DHT22;28755;51.478;5.702;2023-02-01T02:53:34;5.70;99.90
43151;DHT22;28755;51.478;5.702;2023-02-01T02:56:23;5.70;99.90
43151;DHT22;28755;51.478;5.702;2023-02-01T02:59:09;5.80;99.90
43151;DHT22;28755;51.478;5.702;2023-02-01T03:01:54;5.80;99.90
43151;DHT22;28755;51.478;5.702;2023-02-01T03:04:38;5.80;99.90
43151;DHT22;28755;51.478;5.702;2023-02-01T03:07:42;5.80;99.90
43151;DHT22;28755;51.478;5.702;2023-02-01T03:10:03;5.90;99.90
43151;DHT22;28755;51.478;5.702;2023-02-01T03:12:35;5.90;99.90
43151;DHT22;28755;51.478;5.702;2023-02-01T03:15:39;6.00;99.90
43151;DHT22;28755;51.478;5.702;2023-02-01T03:18:13;6.10;99.90
43151;DHT22;28755;51.478;5.702;2023-02-01T03:20:44;6.10;99.90
43151;DHT22;28755;51.478;5.702;2023-02-01T03:23:16;6.00;99.90
43151;DHT22;28755;51.478;5.702;2023-02-01T03:25:43;6.00;99.90
43151;DHT22;28755;51.478;5.702;2023-02-01T03:28:10;5.90;99.90
43151;DHT22;28755;51.478;5.702;2023-02-01T03:30:39;5.90;99.90
43151;DHT22;28755;51.478;5.702;2023-02-01T03:33:11;5.90;99.90
43151;DHT22;28755;51.478;5.702;2023-02-01T03:41:28;5.90;99.90
43151;DHT22;28755;51.478;5.702;2023-02-01T03:44:04;5.90;99.90
43151;DHT22;28755;51.478;5.702;2023-02-01T03:46:35;5.90;99.90
43151;DHT22;28755;51.478;5.702;2023-02-01T03:49:05;5.90;99.90
43151;DHT22;28755;51.478;5.702;2023-02-01T03:51:32;5.80;99.90
43151;DHT22;28755;51.478;5.702;2023-02-01T03:53:59;5.80;99.90
43151;DHT22;28755;51.478;5.702;2023-02-01T03:56:27;5.80;99.90
43151;DHT22;28755;51.478;5.702;2023-02-01T03:58:55;5.80;99.90
43151;DHT22;28755;51.478;5.702;2023-02-01T04:01:25;5.70;99.90
43151;DHT22;28755;51.478;5.702;2023-02-01T04:03:51;5.70;99.90
43151;DHT22;28755;51.478;5.702;2023-02-01T04:06:17;5.70;99.90
43151;DHT22;28755;51.478;5.702;2023-02-01T04:08:42;5.60;99.90
43151;DHT22;28755;51.478;5.702;2023-02-01T04:11:08;5.60;99.90
43151;DHT22;28755;51.478;5.702;2023-02-01T04:13:33;5.60;99.90
43151;DHT22;28755;51.478;5.702;2023-02-01T04:15:59;5.60;99.90
43151;DHT22;28755;51.478;5.702;2023-02-01T04:18:25;5.60;99.90
43151;DHT22;28755;51.478;5.702;2023-02-01T04:20:50;5.50;99.90
43151;DHT22;28755;51.478;5.702;2023-02-01T04:23:16;5.50;99.90
43151;DHT22;28755;51.478;5.702;2023-02-01T04:25:41;5.50;99.90
43151;DHT22;28755;51.478;5.702;2023-02-01T04:28:07;5.50;99.90
43151;DHT22;28755;51.478;5.702;2023-02-01T04:30:32;5.50;99.90
43151;DHT22;28755;51.478;5.702;2023-02-01T04:32:58;5.50;99.90
43151;DHT22;28755;51.478;5.702;2023-02-01T04:35:24;5.50;99.90
43151;DHT22;28755;51.478;5.702;2023-02-01T04:37:49;5.50;99.90
43151;DHT22;28755;51.478;5.702;2023-02-01T04:40:15;5.50;99.90
43151;DHT22;28755;51.478;5.702;2023-02-01T04:42:40;5.40;99.90
43151;DHT22;28755;51.478;5.702;2023-02-01T04:45:06;5.50;99.90
43151;DHT22;28755;51.478;5.702;2023-02-01T04:47:32;5.50;99.90
43151;DHT22;28755;51.478;5.702;2023-02-01T04:49:57;5.40;99.90
43151;DHT22;28755;51.478;5.702;2023-02-01T04:52:23;5.50;99.90
43151;DHT22;28755;51.478;5.702;2023-02-01T04:54:48;5.40;99.90
43151;DHT22;28755;51.478;5.702;2023-02-01T04:57:14;5.50;99.90
43151;DHT22;28755;51.478;5.702;2023-02-01T04:59:40;5.50;99.90
43151;DHT22;28755;51.478;5.702;2023-02-01T05:02:06;5.40;99.90
43151;DHT22;28755;51.478;5.702;2023-02-01T05:04:31;5.40;99.90
43151;DHT22;28755;51.478;5.702;2023-02-01T05:06:57;5.30;99.90
43151;DHT22;28755;51.478;5.702;2023-02-01T05:09:22;5.30;99.90
43151;DHT22;28755;51.478;5.702;2023-02-01T05:11:48;5.40;99.90
43151;DHT22;28755;51.478;5.702;2023-02-01T05:14:32;5.30;99.90
43151;DHT22;28755;51.478;5.702;2023-02-01T05:16:58;5.30;99.90
43151;DHT22;28755;51.478;5.702;2023-02-01T05:19:23;5.40;99.90
43151;DHT22;28755;51.478;5.702;2023-02-01T05:21:49;5.50;99.90
43151;DHT22;28755;51.478;5.702;2023-02-01T05:24:14;5.50;99.90
43151;DHT22;28755;51.478;5.702;2023-02-01T05:26:45;5.50;99.90
43151;DHT22;28755;51.478;5.702;2023-02-01T05:29:11;5.60;99.90
43151;DHT22;28755;51.478;5.702;2023-02-01T05:31:37;5.60;99.90
43151;DHT22;28755;51.478;5.702;2023-02-01T05:34:03;5.60;99.90
43151;DHT22;28755;51.478;5.702;2023-02-01T05:36:30;5.60;99.90
43151;DHT22;28755;51.478;5.702;2023-02-01T05:38:55;5.60;99.90
43151;DHT22;28755;51.478;5.702;2023-02-01T05:41:21;5.60;99.90
43151;DHT22;28755;51.478;5.702;2023-02-01T05:43:46;5.60;99.90
43151;DHT22;28755;51.478;5.702;2023-02-01T05:46:12;5.70;99.90
43151;DHT22;28755;51.478;5.702;2023-02-01T05:48:39;5.60;99.90
43151;DHT22;28755;51.478;5.702;2023-02-01T05:51:05;5.70;99.90
43151;DHT22;28755;51.478;5.702;2023-02-01T05:53:31;5.70;99.90
43151;DHT22;28755;51.478;5.702;2023-02-01T05:59:03;5.70;99.90
43151;DHT22;28755;51.478;5.702;2023-02-01T06:01:32;5.70;99.90
43151;DHT22;28755;51.478;5.702;2023-02-01T06:03:57;5.80;99.90
43151;DHT22;28755;51.478;5.702;2023-02-01T06:06:23;5.70;99.90
43151;DHT22;28755;51.478;5.702;2023-02-01T06:08:49;5.70;99.90
43151;DHT22;28755;51.478;5.702;2023-02-01T06:11:14;5.70;99.90
43151;DHT22;28755;51.478;5.702;2023-02-01T06:13:40;5.80;99.90
43151;DHT22;28755;51.478;5.702;2023-02-01T06:16:06;5.80;99.90
43151;DHT22;28755;51.478;5.702;2023-02-01T06:18:34;5.80;99.90
43151;DHT22;28755;51.478;5.702;2023-02-01T06:21:00;5.80;99.90
43151;DHT22;28755;51.478;5.702;2023-02-01T06:23:26;5.80;99.90
43151;DHT22;28755;51.478;5.702;2023-02-01T06:26:12;5.80;99.90
43151;DHT22;28755;51.478;5.702;2023-02-01T06:28:38;5.80;99.90
43151;DHT22;28755;51.478;5.702;2023-02-01T06:31:05;5.70;99.90
43151;DHT22;28755;51.478;5.702;2023-02-01T06:33:35;5.80;99.90
43151;DHT22;28755;51.478;5.702;2023-02-01T06:36:03;5.80;99.90
43151;DHT22;28755;51.478;5.702;2023-02-01T06:38:30;5.80;99.90
43151;DHT22;28755;51.478;5.702;2023-02-01T06:40:57;5.90;99.90
43151;DHT22;28755;51.478;5.702;2023-02-01T06:43:24;5.90;99.90
43151;DHT22;28755;51.478;5.702;2023-02-01T06:45:50;5.90;99.90
43151;DHT22;28755;51.478;5.702;2023-02-01T06:48:16;5.90;99.90
43151;DHT22;28755;51.478;5.702;2023-02-01T06:50:42;5.90;99.90
43151;DHT22;28755;51.478;5.702;2023-02-01T06:53:07;6.00;99.90
43151;DHT22;28755;51.478;5.702;2023-02-01T06:55:33;6.00;99.90
43151;DHT22;28755;51.478;5.702;2023-02-01T06:57:58;6.00;99.90
43151;DHT22;28755;51.478;5.702;2023-02-01T07:00:24;6.00;99.90
43151;DHT22;28755;51.478;5.702;2023-02-01T07:02:50;6.00;99.90
43151;DHT22;28755;51.478;5.702;2023-02-01T07:05:16;6.00;99.90
43151;DHT22;28755;51.478;5.702;2023-02-01T07:07:42;6.00;99.90
43151;DHT22;28755;51.478;5.702;2023-02-01T07:10:08;6.00;99.90
43151;DHT22;28755;51.478;5.702;2023-02-01T07:12:34;6.00;99.90
43151;DHT22;28755;51.478;5.702;2023-02-01T07:15:00;5.90;99.90
43151;DHT22;28755;51.478;5.702;2023-02-01T07:17:27;5.90;99.90
43151;DHT22;28755;51.478;5.702;2023-02-01T07:19:54;5.80;99.90
43151;DHT22;28755;51.478;5.702;2023-02-01T07:22:20;5.80;99.90
43151;DHT22;28755;51.478;5.702;2023-02-01T07:24:45;5.80;99.90
43151;DHT22;28755;51.478;5.702;2023-02-01T07:27:11;5.70;99.90
43151;DHT22;28755;51.478;5.702;2023-02-01T07:29:37;5.70;99.90
43151;DHT22;28755;51.478;5.702;2023-02-01T07:32:02;5.70;99.90
43151;DHT22;28755;51.478;5.702;2023-02-01T07:34:28;5.70;99.90
43151;DHT22;28755;51.478;5.702;2023-02-01T07:36:55;5.70;99.90
43151;DHT22;28755;51.478;5.702;2023-02-01T07:39:21;5.60;99.90
43151;DHT22;28755;51.478;5.702;2023-02-01T07:41:46;5.70;99.90
43151;DHT22;28755;51.478;5.702;2023-02-01T07:44:12;5.70;99.90
43151;DHT22;28755;51.478;5.702;2023-02-01T07:46:37;5.80;99.90
43151;DHT22;28755;51.478;5.702;2023-02-01T07:49:04;5.70;99.90
43151;DHT22;28755;51.478;5.702;2023-02-01T07:51:30;5.70;99.90
43151;DHT22;28755;51.478;5.702;2023-02-01T07:53:55;5.70;99.90
43151;DHT22;28755;51.478;5.702;2023-02-01T07:56:21;5.80;99.90
43151;DHT22;28755;51.478;5.702;2023-02-01T07:58:51;5.80;99.90
43151;DHT22;28755;51.478;5.702;2023-02-01T08:01:20;5.80;99.90
43151;DHT22;28755;51.478;5.702;2023-02-01T08:03:59;5.90;99.90
43151;DHT22;28755;51.478;5.702;2023-02-01T08:06:25;5.90;99.90
43151;DHT22;28755;51.478;5.702;2023-02-01T08:08:52;5.90;99.90
43151;DHT22;28755;51.478;5.702;2023-02-01T08:11:19;5.90;99.90
43151;DHT22;28755;51.478;5.702;2023-02-01T08:13:45;6.00;99.90
43151;DHT22;28755;51.478;5.702;2023-02-01T08:16:12;6.00;99.90
43151;DHT22;28755;51.478;5.702;2023-02-01T08:18:38;6.10;99.90
43151;DHT22;28755;51.478;5.702;2023-02-01T08:21:18;6.10;99.90
43151;DHT22;28755;51.478;5.702;2023-02-01T08:23:45;6.20;99.90
43151;DHT22;28755;51.478;5.702;2023-02-01T08:26:15;6.60;99.90
43151;DHT22;28755;51.478;5.702;2023-02-01T08:28:44;6.90;99.90
43151;DHT22;28755;51.478;5.702;2023-02-01T08:31:13;7.10;99.90
43151;DHT22;28755;51.478;5.702;2023-02-01T08:33:40;7.00;99.90
43151;DHT22;28755;51.478;5.702;2023-02-01T08:36:07;7.50;99.90
43151;DHT22;28755;51.478;5.702;2023-02-01T08:38:38;7.90;99.90
43151;DHT22;28755;51.478;5.702;2023-02-01T08:41:09;7.80;99.90
43151;DHT22;28755;51.478;5.702;2023-02-01T08:43:35;7.50;99.90
43151;DHT22;28755;51.478;5.702;2023-02-01T08:46:01;7.20;99.90
43151;DHT22;28755;51.478;5.702;2023-02-01T08:48:26;7.10;99.90
43151;DHT22;28755;51.478;5.702;2023-02-01T08:50:52;7.20;99.90
43151;DHT22;28755;51.478;5.702;2023-02-01T08:53:17;7.30;99.90
43151;DHT22;28755;51.478;5.702;2023-02-01T08:55:46;7.30;99.90
43151;DHT22;28755;51.478;5.702;2023-02-01T08:58:12;7.20;99.90
43151;DHT22;28755;51.478;5.702;2023-02-01T09:00:39;7.20;99.90
43151;DHT22;28755;51.478;5.702;2023-02-01T09:03:05;7.50;99.90
43151;DHT22;28755;51.478;5.702;2023-02-01T09:05:31;7.80;99.90
43151;DHT22;28755;51.478;5.702;2023-02-01T09:07:56;8.20;99.90
43151;DHT22;28755;51.478;5.702;2023-02-01T09:10:22;8.20;99.90
43151;DHT22;28755;51.478;5.702;2023-02-01T09:12:47;8.20;99.90
43151;DHT22;28755;51.478;5.702;2023-02-01T09:15:13;8.10;99.90
43151;DHT22;28755;51.478;5.702;2023-02-01T09:17:38;8.00;99.90
43151;DHT22;28755;51.478;5.702;2023-02-01T09:20:08;7.90;99.90
43151;DHT22;28755;51.478;5.702;2023-02-01T09:22:34;7.80;99.90
43151;DHT22;28755;51.478;5.702;2023-02-01T09:24:59;7.70;99.90
43151;DHT22;28755;51.478;5.702;2023-02-01T09:27:25;7.90;99.90
43151;DHT22;28755;51.478;5.702;2023-02-01T09:29:51;8.40;99.90
43151;DHT22;28755;51.478;5.702;2023-02-01T09:32:23;9.10;99.90
43151;DHT22;28755;51.478;5.702;2023-02-01T09:34:50;9.50;99.90
43151;DHT22;28755;51.478;5.702;2023-02-01T09:37:15;9.50;99.90
43151;DHT22;28755;51.478;5.702;2023-02-01T09:39:42;9.00;99.90
43151;DHT22;28755;51.478;5.702;2023-02-01T09:42:32;8.60;99.90
43151;DHT22;28755;51.478;5.702;2023-02-01T09:45:26;8.30;99.90
43151;DHT22;28755;51.478;5.702;2023-02-01T09:47:57;8.20;99.90
43151;DHT22;28755;51.478;5.702;2023-02-01T09:50:36;8.30;99.90
43151;DHT22;28755;51.478;5.702;2023-02-01T09:53:18;8.20;99.90
43151;DHT22;28755;51.478;5.702;2023-02-01T09:55:48;8.10;99.90
43151;DHT22;28755;51.478;5.702;2023-02-01T09:58:22;8.10;99.90
43151;DHT22;28755;51.478;5.702;2023-02-01T10:00:58;8.10;99.90
43151;DHT22;28755;51.478;5.702;2023-02-01T10:03:28;8.10;99.90
43151;DHT22;28755;51.478;5.702;2023-02-01T10:08:49;8.10;99.90
43151;DHT22;28755;51.478;5.702;2023-02-01T10:11:27;8.10;99.90
43151;DHT22;28755;51.478;5.702;2023-02-01T10:17:39;8.30;99.90
43151;DHT22;28755;51.478;5.702;2023-02-01T10:25:51;9.10;99.90
43151;DHT22;28755;51.478;5.702;2023-02-01T10:28:18;9.60;99.90
43151;DHT22;28755;51.478;5.702;2023-02-01T10:30:47;10.30;99.90
43151;DHT22;28755;51.478;5.702;2023-02-01T10:36:17;10.10;99.90
43151;DHT22;28755;51.478;5.702;2023-02-01T10:38:45;10.00;99.90
43151;DHT22;28755;51.478;5.702;2023-02-01T10:41:20;9.50;99.90
43151;DHT22;28755;51.478;5.702;2023-02-01T10:43:50;9.30;99.90
43151;DHT22;28755;51.478;5.702;2023-02-01T10:46:18;9.10;99.90
43151;DHT22;28755;51.478;5.702;2023-02-01T10:48:44;9.00;99.90
43151;DHT22;28755;51.478;5.702;2023-02-01T10:51:24;8.90;99.90
43151;DHT22;28755;51.478;5.702;2023-02-01T10:54:01;8.90;99.90
43151;DHT22;28755;51.478;5.702;2023-02-01T10:56:28;8.80;99.90
43151;DHT22;28755;51.478;5.702;2023-02-01T10:59:03;8.80;99.90
43151;DHT22;28755;51.478;5.702;2023-02-01T11:01:36;8.70;99.90
43151;DHT22;28755;51.478;5.702;2023-02-01T11:04:09;8.70;99.90
43151;DHT22;28755;51.478;5.702;2023-02-01T11:06:37;8.80;99.90
43151;DHT22;28755;51.478;5.702;2023-02-01T11:14:39;8.70;99.90
43151;DHT22;28755;51.478;5.702;2023-02-01T11:19:44;8.70;99.90
43151;DHT22;28755;51.478;5.702;2023-02-01T11:22:12;8.70;99.90
43151;DHT22;28755;51.478;5.702;2023-02-01T11:24:39;8.70;99.90
43151;DHT22;28755;51.478;5.702;2023-02-01T11:27:14;8.70;99.90
43151;DHT22;28755;51.478;5.702;2023-02-01T11:29:43;8.80;99.90
43151;DHT22;28755;51.478;5.702;2023-02-01T11:32:11;8.70;99.90
43151;DHT22;28755;51.478;5.702;2023-02-01T11:34:41;8.70;99.90
43151;DHT22;28755;51.478;5.702;2023-02-01T11:37:21;8.70;99.90
43151;DHT22;28755;51.478;5.702;2023-02-01T11:39:56;8.70;99.90
43151;DHT22;28755;51.478;5.702;2023-02-01T11:42:22;8.70;99.90
43151;DHT22;28755;51.478;5.702;2023-02-01T11:44:47;8.70;99.90
43151;DHT22;28755;51.478;5.702;2023-02-01T11:47:29;8.70;99.90
43151;DHT22;28755;51.478;5.702;2023-02-01T11:49:58;8.60;99.90
43151;DHT22;28755;51.478;5.702;2023-02-01T11:52:40;8.60;99.90
43151;DHT22;28755;51.478;5.702;2023-02-01T12:00:40;8.70;99.90
43151;DHT22;28755;51.478;5.702;2023-02-01T12:06:13;8.70;99.90
43151;DHT22;28755;51.478;5.702;2023-02-01T12:11:33;8.70;99.90
43151;DHT22;28755;51.478;5.702;2023-02-01T12:14:30;8.70;99.90
43151;DHT22;28755;51.478;5.702;2023-02-01T12:26:13;8.70;99.90
43151;DHT22;28755;51.478;5.702;2023-02-01T12:31:50;8.70;99.90
43151;DHT22;28755;51.478;5.702;2023-02-01T12:45:54;8.80;99.90
43151;DHT22;28755;51.478;5.702;2023-02-01T12:48:42;8.90;99.90
43151;DHT22;28755;51.478;5.702;2023-02-01T12:51:16;8.90;99.90
43151;DHT22;28755;51.478;5.702;2023-02-01T12:54:06;8.90;99.90
43151;DHT22;28755;51.478;5.702;2023-02-01T12:56:43;8.90;99.90
43151;DHT22;28755;51.478;5.702;2023-02-01T13:05:02;9.00;99.90
43151;DHT22;28755;51.478;5.702;2023-02-01T13:07:51;9.00;99.90
43151;DHT22;28755;51.478;5.702;2023-02-01T13:12:59;9.10;99.90
43151;DHT22;28755;51.478;5.702;2023-02-01T13:15:33;9.10;99.90
43151;DHT22;28755;51.478;5.702;2023-02-01T13:18:04;9.10;99.90
43151;DHT22;28755;51.478;5.702;2023-02-01T13:20:35;9.00;99.90
43151;DHT22;28755;51.478;5.702;2023-02-01T13:23:07;9.10;99.90
43151;DHT22;28755;51.478;5.702;2023-02-01T13:25:35;9.10;99.90
43151;DHT22;28755;51.478;5.702;2023-02-01T13:28:12;9.10;99.90
43151;DHT22;28755;51.478;5.702;2023-02-01T13:33:59;9.20;99.90
43151;DHT22;28755;51.478;5.702;2023-02-01T13:41:57;9.60;99.90
43151;DHT22;28755;51.478;5.702;2023-02-01T13:44:39;9.60;99.90
43151;DHT22;28755;51.478;5.702;2023-02-01T13:47:24;9.90;99.90
43151;DHT22;28755;51.478;5.702;2023-02-01T13:49:52;9.70;99.90
43151;DHT22;28755;51.478;5.702;2023-02-01T13:52:34;9.60;99.90
43151;DHT22;28755;51.478;5.702;2023-02-01T13:57:46;9.40;99.90
43151;DHT22;28755;51.478;5.702;2023-02-01T14:00:33;9.40;99.90
43151;DHT22;28755;51.478;5.702;2023-02-01T14:13:34;9.20;99.90
43151;DHT22;28755;51.478;5.702;2023-02-01T14:23:43;9.30;99.90
43151;DHT22;28755;51.478;5.702;2023-02-01T14:26:16;9.30;99.90
43151;DHT22;28755;51.478;5.702;2023-02-01T14:29:30;9.20;99.90
43151;DHT22;28755;51.478;5.702;2023-02-01T14:36:51;9.20;99.90
43151;DHT22;28755;51.478;5.702;2023-02-01T14:39:30;9.20;99.90
43151;DHT22;28755;51.478;5.702;2023-02-01T14:42:00;9.20;99.90
43151;DHT22;28755;51.478;5.702;2023-02-01T14:44:29;9.20;99.90
43151;DHT22;28755;51.478;5.702;2023-02-01T14:50:03;9.20;99.90
43151;DHT22;28755;51.478;5.702;2023-02-01T15:01:12;9.10;99.90
43151;DHT22;28755;51.478;5.702;2023-02-01T15:04:16;9.10;99.90
43151;DHT22;28755;51.478;5.702;2023-02-01T15:09:32;9.10;99.90
43151;DHT22;28755;51.478;5.702;2023-02-01T15:14:42;9.00;99.90
43151;DHT22;28755;51.478;5.702;2023-02-01T15:17:21;9.00;99.90
43151;DHT22;28755;51.478;5.702;2023-02-01T15:20:14;9.00;99.90
43151;DHT22;28755;51.478;5.702;2023-02-01T15:22:41;9.00;99.90
43151;DHT22;28755;51.478;5.702;2023-02-01T15:25:19;9.00;99.90
43151;DHT22;28755;51.478;5.702;2023-02-01T15:27:45;9.00;99.90
43151;DHT22;28755;51.478;5.702;2023-02-01T15:30:18;9.00;99.90
43151;DHT22;28755;51.478;5.702;2023-02-01T15:32:45;9.00;99.90
43151;DHT22;28755;51.478;5.702;2023-02-01T15:35:37;9.00;99.90
43151;DHT22;28755;51.478;5.702;2023-02-01T15:38:20;9.00;99.90
43151;DHT22;28755;51.478;5.702;2023-02-01T15:40:59;9.00;99.90
43151;DHT22;28755;51.478;5.702;2023-02-01T15:43:26;9.00;99.90
43151;DHT22;28755;51.478;5.702;2023-02-01T15:45:56;9.00;99.90
43151;DHT22;28755;51.478;5.702;2023-02-01T15:48:27;9.00;99.90
43151;DHT22;28755;51.478;5.702;2023-02-01T15:50:56;9.00;99.90
43151;DHT22;28755;51.478;5.702;2023-02-01T15:53:24;8.90;99.90
43151;DHT22;28755;51.478;5.702;2023-02-01T15:55:55;8.90;99.90
43151;DHT22;28755;51.478;5.702;2023-02-01T15:58:23;9.00;99.90
43151;DHT22;28755;51.478;5.702;2023-02-01T16:00:59;8.90;99.90
43151;DHT22;28755;51.478;5.702;2023-02-01T16:03:40;8.90;99.90
43151;DHT22;28755;51.478;5.702;2023-02-01T16:06:28;8.90;99.90
43151;DHT22;28755;51.478;5.702;2023-02-01T16:09:11;8.90;99.90
43151;DHT22;28755;51.478;5.702;2023-02-01T16:12:03;8.90;99.90
43151;DHT22;28755;51.478;5.702;2023-02-01T16:14:28;8.90;99.90
43151;DHT22;28755;51.478;5.702;2023-02-01T16:16:55;8.90;99.90
43151;DHT22;28755;51.478;5.702;2023-02-01T16:19:21;8.80;99.90
43151;DHT22;28755;51.478;5.702;2023-02-01T16:21:50;8.90;99.90
43151;DHT22;28755;51.478;5.702;2023-02-01T16:24:16;8.90;99.90
43151;DHT22;28755;51.478;5.702;2023-02-01T16:26:41;8.80;99.90
43151;DHT22;28755;51.478;5.702;2023-02-01T16:29:07;8.80;99.90
43151;DHT22;28755;51.478;5.702;2023-02-01T16:31:36;8.70;99.90
43151;DHT22;28755;51.478;5.702;2023-02-01T16:34:04;8.70;99.90
43151;DHT22;28755;51.478;5.702;2023-02-01T16:36:31;8.70;99.90
43151;DHT22;28755;51.478;5.702;2023-02-01T16:38:57;8.70;99.90
43151;DHT22;28755;51.478;5.702;2023-02-01T16:41:24;8.60;99.90
43151;DHT22;28755;51.478;5.702;2023-02-01T16:43:51;8.60;99.90
43151;DHT22;28755;51.478;5.702;2023-02-01T16:46:20;8.60;99.90
43151;DHT22;28755;51.478;5.702;2023-02-01T16:48:52;8.60;99.90
43151;DHT22;28755;51.478;5.702;2023-02-01T16:51:19;8.60;99.90
43151;DHT22;28755;51.478;5.702;2023-02-01T16:53:45;8.60;99.90
43151;DHT22;28755;51.478;5.702;2023-02-01T16:56:14;8.50;99.90
43151;DHT22;28755;51.478;5.702;2023-02-01T16:58:41;8.60;99.90
43151;DHT22;28755;51.478;5.702;2023-02-01T17:01:09;8.60;99.90
43151;DHT22;28755;51.478;5.702;2023-02-01T17:03:35;8.70;99.90
43151;DHT22;28755;51.478;5.702;2023-02-01T17:06:01;8.70;99.90
43151;DHT22;28755;51.478;5.702;2023-02-01T17:08:33;8.70;99.90
43151;DHT22;28755;51.478;5.702;2023-02-01T17:10:59;8.70;99.90
43151;DHT22;28755;51.478;5.702;2023-02-01T17:13:25;8.70;99.90
43151;DHT22;28755;51.478;5.702;2023-02-01T17:16:04;8.70;99.90
43151;DHT22;28755;51.478;5.702;2023-02-01T17:18:33;8.70;99.90
43151;DHT22;28755;51.478;5.702;2023-02-01T17:21:01;8.80;99.90
43151;DHT22;28755;51.478;5.702;2023-02-01T17:23:29;8.80;99.90
43151;DHT22;28755;51.478;5.702;2023-02-01T17:25:55;8.70;99.90
43151;DHT22;28755;51.478;5.702;2023-02-01T17:28:21;8.70;99.90
43151;DHT22;28755;51.478;5.702;2023-02-01T17:30:47;8.80;99.90
43151;DHT22;28755;51.478;5.702;2023-02-01T17:33:31;8.80;99.90
43151;DHT22;28755;51.478;5.702;2023-02-01T17:35:58;8.80;99.90
43151;DHT22;28755;51.478;5.702;2023-02-01T17:38:24;8.90;99.90
43151;DHT22;28755;51.478;5.702;2023-02-01T17:40:50;8.80;99.90
43151;DHT22;28755;51.478;5.702;2023-02-01T17:43:20;8.70;99.90
43151;DHT22;28755;51.478;5.702;2023-02-01T17:45:51;8.80;99.90
43151;DHT22;28755;51.478;5.702;2023-02-01T17:48:22;8.80;99.90
43151;DHT22;28755;51.478;5.702;2023-02-01T17:50:49;8.80;99.90
43151;DHT22;28755;51.478;5.702;2023-02-01T17:53:16;8.80;99.90
43151;DHT22;28755;51.478;5.702;2023-02-01T17:55:45;8.80;99.90
43151;DHT22;28755;51.478;5.702;2023-02-01T17:58:12;8.80;99.90
43151;DHT22;28755;51.478;5.702;2023-02-01T18:00:39;8.70;99.90
43151;DHT22;28755;51.478;5.702;2023-02-01T18:03:05;8.70;99.90
43151;DHT22;28755;51.478;5.702;2023-02-01T18:05:41;8.70;99.90
43151;DHT22;28755;51.478;5.702;2023-02-01T18:08:08;8.80;99.90
43151;DHT22;28755;51.478;5.702;2023-02-01T18:10:34;8.70;99.90
43151;DHT22;28755;51.478;5.702;2023-02-01T18:13:01;8.80;99.90
43151;DHT22;28755;51.478;5.702;2023-02-01T18:15:29;8.70;99.90
43151;DHT22;28755;51.478;5.702;2023-02-01T18:17:55;8.80;99.90
43151;DHT22;28755;51.478;5.702;2023-02-01T18:20:25;8.80;99.90
43151;DHT22;28755;51.478;5.702;2023-02-01T18:22:51;8.70;99.90
43151;DHT22;28755;51.478;5.702;2023-02-01T18:25:25;8.80;99.90
43151;DHT22;28755;51.478;5.702;2023-02-01T18:27:52;8.70;99.90
43151;DHT22;28755;51.478;5.702;2023-02-01T18:30:20;8.70;99.90
43151;DHT22;28755;51.478;5.702;2023-02-01T18:32:47;8.70;99.90
43151;DHT22;28755;51.478;5.702;2023-02-01T18:35:22;8.70;99.90